Time;durP1;ratioP1;P1;durP2;ratioP2;P2;SDS_P1;SDS_P2;PMS_P1;PMS_P2;Temp;Humidity;BMP_temperature;BMP_pressure;BME280_temperature;BME280_humidity;BME280_pressure;Samples;Min_cycle;Max_cycle;Signal;HPM_P1;HPM_P2
2021/09/04 00:02:20;;;;;;;10.30;7.10;;;;;;;27.96;38.93;98088.03;5041681;28;20213;-70
2021/09/04 00:04:48;;;;;;;9.87;6.50;;;;;;;27.47;40.53;98088.00;5030725;28;20720;-70
2021/09/04 00:07:16;;;;;;;8.43;6.13;;;;;;;27.45;40.44;98083.97;5035065;28;20653;-71
2021/09/04 00:09:44;;;;;;;9.77;6.40;;;;;;;26.83;41.87;98088.25;5046490;28;20712;-69
2021/09/04 00:12:11;;;;;;;12.17;6.70;;;;;;;26.75;42.70;98086.19;5045688;28;20207;-70
2021/09/04 00:14:38;;;;;;;9.23;6.50;;;;;;;27.29;41.14;98088.16;5035448;28;20233;-70
2021/09/04 00:17:06;;;;;;;9.70;6.67;;;;;;;27.34;40.84;98086.13;5047161;28;20204;-70
2021/09/04 00:19:33;;;;;;;9.53;6.13;;;;;;;27.04;41.85;98077.69;5038293;28;20215;-70
2021/09/04 00:22:00;;;;;;;14.13;6.93;;;;;;;27.75;39.97;98083.28;5037222;28;20220;-71
2021/09/04 00:24:29;;;;;;;8.47;6.27;;;;;;;26.57;42.91;98081.63;5032405;28;20241;-71
2021/09/04 00:26:56;;;;;;;10.63;7.23;;;;;;;26.67;42.66;98081.44;5038414;28;20212;-70
2021/09/04 00:29:24;;;;;;;12.83;7.23;;;;;;;26.51;43.59;98077.28;5040828;28;20212;-70
2021/09/04 00:31:51;;;;;;;10.10;6.77;;;;;;;27.33;41.39;98067.25;5042573;28;20222;-70
2021/09/04 00:34:18;;;;;;;9.60;7.27;;;;;;;27.17;41.38;98074.97;5036830;28;20233;-71
2021/09/04 00:36:45;;;;;;;11.03;7.37;;;;;;;27.58;40.51;98075.72;5044956;28;20200;-70
2021/09/04 00:39:13;;;;;;;11.70;6.90;;;;;;;27.49;40.55;98077.56;5033873;28;20210;-70
2021/09/04 00:41:41;;;;;;;10.83;7.20;;;;;;;26.62;42.72;98077.97;5038354;28;20203;-71
2021/09/04 00:44:15;;;;;;;10.83;7.10;;;;;;;26.69;42.68;98075.63;5043795;28;20233;-70
2021/09/04 00:46:42;;;;;;;11.33;7.17;;;;;;;26.84;42.85;98072.59;5038395;28;20562;-70
2021/09/04 00:49:09;;;;;;;10.70;7.23;;;;;;;26.95;42.07;98074.84;5041620;28;20301;-70
2021/09/04 00:51:37;;;;;;;11.07;6.73;;;;;;;27.30;41.09;98073.31;5031439;28;20699;-69
2021/09/04 00:54:05;;;;;;;10.57;7.40;;;;;;;27.06;41.69;98075.47;5039696;28;20225;-70
2021/09/04 00:56:32;;;;;;;10.23;7.13;;;;;;;27.71;40.07;98082.31;5031188;28;20203;-70
2021/09/04 00:59:05;;;;;;;9.03;7.30;;;;;;;27.35;41.00;98071.28;5037598;28;20570;-70
2021/09/04 01:01:32;;;;;;;10.70;6.80;;;;;;;27.62;39.95;98076.72;5035191;28;20543;-71
2021/09/04 01:04:00;;;;;;;11.37;7.03;;;;;;;27.08;41.21;98082.25;5044007;28;20229;-71
2021/09/04 01:06:27;;;;;;;11.67;7.47;;;;;;;27.05;40.84;98079.31;5045029;28;20819;-69
2021/09/04 01:08:55;;;;;;;10.23;7.20;;;;;;;27.32;40.40;98071.91;5034235;28;20216;-70
2021/09/04 01:11:22;;;;;;;13.27;8.37;;;;;;;27.36;40.11;98083.88;5033093;28;20589;-71
2021/09/04 01:13:49;;;;;;;12.43;7.80;;;;;;;27.43;40.10;98076.06;5031163;28;20237;-70
2021/09/04 01:16:18;;;;;;;10.90;7.07;;;;;;;27.32;40.54;98071.09;5047521;28;20211;-70
2021/09/04 01:18:45;;;;;;;9.53;7.07;;;;;;;27.21;40.52;98072.44;5031129;28;20207;-70
2021/09/04 01:21:13;;;;;;;9.70;7.17;;;;;;;26.87;41.59;98066.53;5041329;28;20215;-71
2021/09/04 01:23:40;;;;;;;11.77;8.10;;;;;;;27.22;40.52;98069.38;5037103;28;20611;-70
2021/09/04 01:26:10;;;;;;;10.17;7.43;;;;;;;27.32;40.33;98065.63;5034782;28;20227;-69
2021/09/04 01:28:38;;;;;;;13.00;7.70;;;;;;;27.39;39.87;98066.00;5037058;28;20663;-71
2021/09/04 01:31:05;;;;;;;11.27;7.70;;;;;;;26.49;42.04;98065.00;5030669;28;20199;-70
2021/09/04 01:33:33;;;;;;;13.67;8.33;;;;;;;26.18;43.42;98062.00;5045322;28;20241;-70
2021/09/04 01:36:00;;;;;;;11.83;8.27;;;;;;;26.26;43.17;98068.72;5044311;28;20211;-70
2021/09/04 01:38:27;;;;;;;13.10;8.13;;;;;;;26.08;44.14;98062.19;5031922;28;20206;-69
2021/09/04 01:40:55;;;;;;;10.63;7.73;;;;;;;26.45;43.08;98058.53;5032475;28;20217;-70
2021/09/04 01:43:23;;;;;;;13.07;8.17;;;;;;;26.84;41.95;98057.00;5042950;28;20229;-70
2021/09/04 01:45:50;;;;;;;12.27;8.40;;;;;;;26.14;44.51;98060.19;5030737;28;20230;-70
2021/09/04 01:48:18;;;;;;;11.43;8.53;;;;;;;25.68;45.33;98045.56;5031470;28;20198;-70
2021/09/04 01:50:45;;;;;;;12.37;8.37;;;;;;;25.77;45.50;98049.25;5034031;28;20213;-71
2021/09/04 01:53:12;;;;;;;17.43;9.43;;;;;;;26.17;44.62;98046.72;5038160;28;20218;-70
2021/09/04 01:55:40;;;;;;;12.07;8.50;;;;;;;26.76;42.42;98054.94;5036718;28;20203;-70
2021/09/04 01:58:07;;;;;;;11.73;8.37;;;;;;;27.14;40.88;98050.88;5037578;28;20207;-70
2021/09/04 02:00:35;;;;;;;14.20;8.27;;;;;;;27.14;40.35;98047.31;5028095;28;20222;-70
2021/09/04 02:03:03;;;;;;;14.07;9.03;;;;;;;27.16;40.67;98045.13;5031014;28;20233;-70
2021/09/04 02:05:30;;;;;;;13.73;8.77;;;;;;;26.54;42.01;98054.78;5034719;28;20235;-70
2021/09/04 02:07:58;;;;;;;12.17;8.57;;;;;;;26.18;43.41;98044.78;5040049;28;20206;-70
2021/09/04 02:10:25;;;;;;;12.53;9.23;;;;;;;25.90;44.55;98051.25;5037984;28;20607;-69
2021/09/04 02:12:52;;;;;;;14.60;8.30;;;;;;;25.95;44.21;98043.78;5036901;28;20207;-69
2021/09/04 02:15:20;;;;;;;12.73;8.30;;;;;;;26.10;44.43;98042.75;5045417;28;20204;-70
2021/09/04 02:17:48;;;;;;;12.10;9.10;;;;;;;25.88;44.25;98050.72;5031334;28;20213;-69
2021/09/04 02:20:16;;;;;;;12.50;8.70;;;;;;;25.92;44.46;98046.31;5031092;28;20655;-69
2021/09/04 02:22:44;;;;;;;14.13;9.03;;;;;;;26.16;43.72;98052.47;5031725;28;20214;-70
2021/09/04 02:25:12;;;;;;;12.47;8.87;;;;;;;26.62;42.01;98051.41;5044413;28;20223;-70
2021/09/04 02:27:39;;;;;;;15.00;9.30;;;;;;;26.41;42.17;98049.31;5039459;28;20663;-69
2021/09/04 02:30:08;;;;;;;15.10;8.67;;;;;;;26.42;41.97;98050.91;5037009;28;20217;-70
2021/09/04 02:32:36;;;;;;;14.30;8.47;;;;;;;25.83;43.64;98045.31;5028803;28;20217;-70
2021/09/04 02:35:05;;;;;;;15.30;8.23;;;;;;;26.61;41.81;98041.53;5030521;28;20674;-70
2021/09/04 02:37:32;;;;;;;13.17;8.60;;;;;;;26.15;42.43;98046.19;5036973;28;20207;-69
2021/09/04 02:40:00;;;;;;;12.93;8.43;;;;;;;26.30;42.92;98039.66;5046937;28;20208;-70
2021/09/04 02:42:27;;;;;;;13.70;9.27;;;;;;;26.29;42.28;98049.78;5039319;28;20211;-69
2021/09/04 02:44:54;;;;;;;13.03;8.93;;;;;;;26.57;41.77;98047.94;5040098;28;20252;-70
2021/09/04 02:47:22;;;;;;;14.40;8.43;;;;;;;26.41;41.81;98050.09;5030468;28;20204;-70
2021/09/04 02:49:49;;;;;;;14.57;8.97;;;;;;;26.00;43.00;98040.19;5042187;28;20206;-71
2021/09/04 02:52:18;;;;;;;13.20;8.93;;;;;;;25.93;43.76;98043.28;5041681;28;20209;-70
2021/09/04 02:54:45;;;;;;;21.07;9.93;;;;;;;25.67;44.30;98042.03;5033951;28;20232;-70
2021/09/04 02:57:12;;;;;;;16.50;8.83;;;;;;;26.14;43.26;98041.84;5041413;28;20198;-70
2021/09/04 02:59:39;;;;;;;14.10;8.50;;;;;;;26.40;41.97;98047.69;5032731;28;20203;-70
2021/09/04 03:02:07;;;;;;;16.13;9.50;;;;;;;25.45;44.50;98039.09;5023167;28;20208;-70
2021/09/04 03:04:34;;;;;;;14.93;9.50;;;;;;;25.56;44.46;98039.75;5036109;28;20223;-71
2021/09/04 03:07:01;;;;;;;16.50;9.10;;;;;;;26.20;42.60;98039.84;5042528;28;20579;-69
2021/09/04 03:09:30;;;;;;;14.43;9.17;;;;;;;26.02;43.06;98040.69;5036736;28;20205;-70
2021/09/04 03:11:57;;;;;;;15.87;9.97;;;;;;;26.03;43.20;98043.13;5030512;28;20233;-70
2021/09/04 03:14:25;;;;;;;16.03;9.53;;;;;;;25.30;45.23;98039.31;5032112;28;20242;-70
2021/09/04 03:16:52;;;;;;;17.57;9.37;;;;;;;25.05;46.64;98030.59;5029845;28;20202;-69
2021/09/04 03:19:19;;;;;;;17.03;9.50;;;;;;;25.28;45.88;98024.31;5035570;28;20203;-71
2021/09/04 03:21:47;;;;;;;13.57;9.30;;;;;;;25.70;44.26;98033.22;5042208;28;20206;-70
2021/09/04 03:24:15;;;;;;;16.57;9.90;;;;;;;26.00;43.18;98031.97;5032420;28;20230;-70
2021/09/04 03:26:43;;;;;;;18.50;9.97;;;;;;;25.91;43.62;98030.97;5033042;28;20308;-70
2021/09/04 03:29:10;;;;;;;15.43;9.60;;;;;;;26.26;42.46;98027.69;5029322;28;20206;-68
2021/09/04 03:31:38;;;;;;;14.20;9.30;;;;;;;26.23;42.29;98029.09;5025130;28;20202;-67
2021/09/04 03:34:05;;;;;;;15.80;10.17;;;;;;;25.53;43.82;98032.94;5042154;28;20235;-68
2021/09/04 03:36:32;;;;;;;14.17;9.23;;;;;;;25.43;44.53;98035.03;5040599;28;20202;-68
2021/09/04 03:38:59;;;;;;;16.23;10.20;;;;;;;25.20;45.48;98031.22;5052024;28;20208;-67
2021/09/04 03:41:27;;;;;;;17.23;10.03;;;;;;;25.41;45.41;98018.09;5042408;28;20201;-68
2021/09/04 03:43:55;;;;;;;15.83;9.97;;;;;;;25.48;44.67;98021.28;5033332;28;20242;-68
2021/09/04 03:46:23;;;;;;;16.43;10.07;;;;;;;24.86;46.20;98021.53;5037070;28;20218;-67
2021/09/04 03:48:50;;;;;;;12.83;9.40;;;;;;;25.22;45.73;98025.44;5048932;28;20210;-68
2021/09/04 03:51:17;;;;;;;15.10;8.40;;;;;;;26.05;43.10;98035.41;5035642;28;20206;-68
2021/09/04 03:53:44;;;;;;;13.97;9.33;;;;;;;26.16;41.95;98036.88;5046283;28;20227;-68
2021/09/04 03:56:12;;;;;;;16.53;9.27;;;;;;;25.49;43.65;98029.16;5044484;28;20205;-70
2021/09/04 03:58:39;;;;;;;13.57;8.97;;;;;;;25.72;43.17;98028.28;5040628;28;20219;-69
2021/09/04 04:01:07;;;;;;;14.50;9.07;;;;;;;24.58;46.04;98030.59;5030997;28;20211;-70
2021/09/04 04:03:35;;;;;;;15.03;9.40;;;;;;;25.50;44.28;98025.34;5042730;28;20234;-70
2021/09/04 04:06:02;;;;;;;13.50;9.00;;;;;;;25.43;43.81;98024.88;5038911;28;20237;-70
2021/09/04 04:08:29;;;;;;;14.87;9.83;;;;;;;25.47;43.71;98027.84;5039877;28;20206;-70
2021/09/04 04:11:06;;;;;;;13.83;8.40;;;;;;;25.11;44.44;98030.25;5042119;28;20223;-70
2021/09/04 04:13:33;;;;;;;15.07;8.40;;;;;;;26.15;41.77;98034.44;5034047;28;20230;-70
2021/09/04 04:16:00;;;;;;;14.57;8.97;;;;;;;26.18;41.36;98033.81;5042085;28;20650;-71
2021/09/04 04:18:29;;;;;;;14.47;8.57;;;;;;;25.90;41.84;98029.38;5043679;28;20217;-70
2021/09/04 04:20:56;;;;;;;15.27;8.10;;;;;;;26.15;41.22;98034.44;5039731;28;20209;-70
2021/09/04 04:23:23;;;;;;;11.00;7.87;;;;;;;26.02;40.99;98037.94;5073178;22;20226;-72
2021/09/04 04:25:51;;;;;;;11.73;7.73;;;;;;;25.80;41.74;98030.31;5083814;28;20225;-74
2021/09/04 04:28:18;;;;;;;13.17;7.60;;;;;;;25.71;42.14;98034.03;5084733;28;20254;-73
2021/09/04 04:30:46;;;;;;;13.10;8.00;;;;;;;25.28;43.21;98036.03;5081629;28;20240;-72
2021/09/04 04:33:13;;;;;;;13.73;8.90;;;;;;;25.31;43.28;98031.91;5077746;28;20271;-73
2021/09/04 04:35:42;;;;;;;10.53;7.47;;;;;;;25.48;43.84;98026.75;5058436;28;20221;-73
2021/09/04 04:38:09;;;;;;;11.67;7.83;;;;;;;26.03;41.47;98036.81;5063038;28;20212;-72
2021/09/04 04:40:37;;;;;;;12.50;8.30;;;;;;;25.63;42.17;98042.91;5066743;28;20300;-73
2021/09/04 04:43:04;;;;;;;14.43;8.43;;;;;;;24.63;45.47;98033.28;5071873;28;20225;-72
2021/09/04 04:45:31;;;;;;;11.23;8.17;;;;;;;25.29;44.01;98034.91;5065392;28;20211;-72
2021/09/04 04:47:59;;;;;;;11.97;7.80;;;;;;;25.95;41.87;98043.78;5070655;28;20211;-73
2021/09/04 04:50:26;;;;;;;13.20;8.17;;;;;;;25.06;44.22;98048.59;5073854;28;20200;-72
2021/09/04 04:52:55;;;;;;;14.17;8.60;;;;;;;24.50;45.70;98032.03;5073017;28;20228;-72
2021/09/04 04:55:22;;;;;;;15.27;8.67;;;;;;;25.30;44.70;98035.75;5072566;28;20207;-73
2021/09/04 04:57:49;;;;;;;11.83;8.13;;;;;;;25.60;43.68;98038.88;5065090;28;20202;-73
2021/09/04 05:00:18;;;;;;;13.97;8.07;;;;;;;25.33;43.98;98043.38;5061645;28;20203;-72
2021/09/04 05:02:49;;;;;;;11.93;8.63;;;;;;;26.05;42.02;98037.34;5061624;28;20312;-72
2021/09/04 05:05:16;;;;;;;11.07;7.97;;;;;;;26.64;40.23;98037.38;5055847;28;20692;-72
2021/09/04 05:07:43;;;;;;;11.40;8.27;;;;;;;26.58;40.26;98050.38;5059831;28;20217;-74
2021/09/04 05:10:13;;;;;;;14.13;8.80;;;;;;;26.62;40.42;98050.56;5063104;28;20213;-72
2021/09/04 05:12:40;;;;;;;15.53;8.20;;;;;;;26.73;40.14;98041.06;5073428;28;20208;-72
2021/09/04 05:15:08;;;;;;;11.93;8.30;;;;;;;26.75;40.06;98049.78;5065835;28;20208;-73
2021/09/04 05:17:35;;;;;;;16.53;8.40;;;;;;;26.83;39.93;98040.84;5073837;28;20218;-73
2021/09/04 05:20:05;;;;;;;12.97;7.30;;;;;;;26.96;39.38;98045.53;5067560;28;20297;-73
2021/09/04 05:22:32;;;;;;;12.57;8.20;;;;;;;26.44;40.29;98048.69;5053648;28;20307;-72
2021/09/04 05:25:00;;;;;;;11.63;8.23;;;;;;;26.37;41.22;98048.28;5072311;28;20296;-73
2021/09/04 05:27:28;;;;;;;12.43;8.30;;;;;;;26.79;40.41;98048.03;5065336;28;20315;-73
2021/09/04 05:29:56;;;;;;;11.27;7.70;;;;;;;27.10;39.63;98046.31;5064960;28;20212;-73
2021/09/04 05:32:24;;;;;;;10.97;8.30;;;;;;;26.89;40.24;98051.41;5057672;28;20741;-74
2021/09/04 05:34:52;;;;;;;13.50;7.83;;;;;;;27.12;39.88;98044.88;5064509;28;20210;-72
2021/09/04 05:37:19;;;;;;;13.57;8.07;;;;;;;27.29;39.62;98042.38;5064850;28;20221;-73
2021/09/04 05:39:48;;;;;;;14.87;8.40;;;;;;;27.39;39.73;98044.06;5067198;28;20208;-75
2021/09/04 05:42:15;;;;;;;16.33;8.73;;;;;;;27.40;39.56;98052.00;5061600;28;20236;-74
2021/09/04 05:44:44;;;;;;;15.77;8.97;;;;;;;27.53;39.41;98044.84;5055817;28;20227;-75
2021/09/04 05:47:12;;;;;;;15.30;9.07;;;;;;;27.66;39.36;98044.81;5064524;28;20217;-73
2021/09/04 05:49:39;;;;;;;14.67;8.63;;;;;;;27.80;38.99;98048.38;5061395;28;20202;-73
2021/09/04 05:52:07;;;;;;;15.13;8.87;;;;;;;27.67;39.01;98057.41;5062453;28;20663;-78
2021/09/04 05:54:35;;;;;;;16.27;8.80;;;;;;;27.66;38.65;98055.78;5068670;28;20229;-81
2021/09/04 05:57:02;;;;;;;15.77;8.43;;;;;;;27.86;38.96;98049.03;5066997;28;20197;-79
2021/09/04 05:59:29;;;;;;;14.97;9.20;;;;;;;28.08;38.84;98049.84;5068943;28;20206;-74
2021/09/04 06:01:58;;;;;;;15.60;8.43;;;;;;;28.39;38.11;98052.69;5065245;28;20212;-79
2021/09/04 06:04:26;;;;;;;14.93;8.67;;;;;;;28.47;38.32;98047.22;5071543;28;20224;-77
2021/09/04 06:06:53;;;;;;;13.70;8.90;;;;;;;28.61;37.89;98044.38;5064253;28;20316;-76
2021/09/04 06:09:22;;;;;;;12.17;8.50;;;;;;;28.55;37.71;98045.66;5065917;28;20204;-78
2021/09/04 06:11:51;;;;;;;13.67;8.90;;;;;;;28.84;37.97;98043.22;5068952;28;20203;-82
2021/09/04 06:14:19;;;;;;;13.23;8.53;;;;;;;28.86;37.84;98046.44;5072042;28;20225;-83
2021/09/04 06:16:46;;;;;;;12.23;8.10;;;;;;;28.82;37.48;98049.03;5055900;28;20202;-74
2021/09/04 06:19:15;;;;;;;14.33;8.80;;;;;;;29.00;37.48;98053.50;5064157;28;20235;-76
2021/09/04 06:21:42;;;;;;;12.90;8.03;;;;;;;29.08;37.46;98044.44;5072358;28;20210;-76
2021/09/04 06:24:09;;;;;;;13.33;8.60;;;;;;;29.26;37.41;98046.13;5061982;28;20237;-80
2021/09/04 06:26:37;;;;;;;13.17;8.70;;;;;;;29.27;36.93;98050.50;5072293;28;20459;-86
2021/09/04 06:29:04;;;;;;;12.57;8.63;;;;;;;26.89;40.58;98053.31;5065403;28;20211;-85
2021/09/04 06:31:31;;;;;;;12.33;8.40;;;;;;;27.93;39.21;98043.94;5075434;28;20300;-83
2021/09/04 06:33:59;;;;;;;12.40;8.10;;;;;;;29.34;37.08;98047.28;5057715;28;20231;-81
2021/09/04 06:36:27;;;;;;;11.53;7.67;;;;;;;29.10;36.73;98063.38;5059926;28;20209;-84
2021/09/04 06:38:55;;;;;;;11.23;7.70;;;;;;;29.04;35.94;98065.44;5065934;28;20236;-79
2021/09/04 06:41:22;;;;;;;14.67;8.97;;;;;;;29.70;35.21;98058.84;5067130;28;20209;-82
2021/09/04 06:43:50;;;;;;;13.63;8.33;;;;;;;29.99;35.32;98070.81;5069852;28;20229;-83
2021/09/04 06:46:31;;;;;;;14.93;8.67;;;;;;;30.04;34.97;98062.38;5076319;28;20712;-84
2021/09/04 06:48:59;;;;;;;11.70;7.53;;;;;;;30.63;33.75;98064.28;5060104;28;20568;-83
2021/09/04 06:51:29;;;;;;;11.23;7.30;;;;;;;30.29;33.84;98069.84;5060143;28;20204;-84
2021/09/04 06:53:56;;;;;;;13.30;7.83;;;;;;;29.96;33.99;98065.16;5060178;28;20214;-84
2021/09/04 06:56:25;;;;;;;11.87;7.33;;;;;;;30.76;33.23;98076.25;5079714;28;20267;-81
2021/09/04 06:58:53;;;;;;;11.87;7.17;;;;;;;30.12;34.08;98063.56;5077105;28;20723;-85
2021/09/04 07:01:20;;;;;;;12.53;7.17;;;;;;;31.15;32.58;98065.69;5073439;28;20277;-80
2021/09/04 07:03:47;;;;;;;12.17;7.10;;;;;;;31.08;32.61;98065.41;5061793;28;20251;-79
2021/09/04 07:06:14;;;;;;;13.13;7.10;;;;;;;30.31;33.90;98066.78;5067542;28;20246;-80
2021/09/04 07:08:43;;;;;;;18.27;8.30;;;;;;;30.25;33.44;98071.63;5067347;28;20225;-79
2021/09/04 07:11:10;;;;;;;13.33;8.27;;;;;;;30.09;34.07;98066.91;5057430;28;20203;-83
2021/09/04 07:13:38;;;;;;;11.77;7.83;;;;;;;30.93;32.44;98068.72;5071659;28;20248;-77
2021/09/04 07:16:06;;;;;;;12.50;6.93;;;;;;;28.74;35.92;98059.97;5064361;28;20226;-76
2021/09/04 07:18:33;;;;;;;10.97;7.67;;;;;;;30.55;33.92;98064.28;5067276;28;20217;-76
2021/09/04 07:21:00;;;;;;;11.20;6.63;;;;;;;31.66;31.97;98064.59;5079432;28;20198;-77
2021/09/04 07:23:28;;;;;;;11.60;7.10;;;;;;;30.15;34.35;98073.94;5070558;28;20246;-79
2021/09/04 07:25:56;;;;;;;9.17;6.80;;;;;;;30.98;33.15;98067.72;5070950;28;20686;-80
2021/09/04 07:28:24;;;;;;;13.90;7.63;;;;;;;31.19;32.63;98085.16;5073963;28;20220;-78
2021/09/04 07:30:51;;;;;;;13.47;7.97;;;;;;;31.26;32.71;98069.72;5075851;28;20212;-82
2021/09/04 07:33:18;;;;;;;12.30;7.93;;;;;;;32.30;30.98;98071.44;5070300;28;20304;-82
2021/09/04 07:35:46;;;;;;;12.53;7.13;;;;;;;31.45;32.30;98081.13;5066721;28;20205;-79
2021/09/04 07:38:13;;;;;;;11.73;6.97;;;;;;;32.30;30.93;98083.31;5067587;28;20269;-77
2021/09/04 07:40:41;;;;;;;12.77;7.83;;;;;;;32.30;30.55;98079.72;5080096;28;20208;-77
2021/09/04 07:43:09;;;;;;;10.60;7.80;;;;;;;32.10;31.21;98084.09;5072584;28;20229;-76
2021/09/04 07:45:37;;;;;;;9.50;6.70;;;;;;;33.11;30.12;98077.84;5073235;28;20227;-77
2021/09/04 07:48:05;;;;;;;13.93;7.80;;;;;;;30.65;33.33;98081.28;5067203;28;20221;-73
2021/09/04 07:50:33;;;;;;;15.43;7.57;;;;;;;31.33;33.01;98077.47;5068879;28;20231;-74
2021/09/04 07:53:00;;;;;;;11.73;6.97;;;;;;;30.32;34.24;98077.47;5065290;28;20229;-75
2021/09/04 07:55:28;;;;;;;10.97;7.10;;;;;;;30.66;34.08;98073.84;5071854;28;20194;-78
2021/09/04 07:57:55;;;;;;;14.10;7.10;;;;;;;31.30;33.07;98065.16;5062753;28;20201;-73
2021/09/04 08:00:24;;;;;;;12.03;7.10;;;;;;;28.87;36.76;98067.28;5053457;28;20198;-77
2021/09/04 08:02:52;;;;;;;12.00;6.20;;;;;;;29.59;36.12;98068.53;5068320;28;20705;-77
2021/09/04 08:05:19;;;;;;;11.17;6.63;;;;;;;32.22;32.22;98072.28;5071581;28;20219;-76
2021/09/04 08:07:47;;;;;;;9.17;6.83;;;;;;;33.07;30.31;98091.56;5066381;28;20225;-74
2021/09/04 08:10:14;;;;;;;7.87;5.57;;;;;;;31.23;33.35;98086.13;5063821;28;20206;-73
2021/09/04 08:12:41;;;;;;;10.53;6.50;;;;;;;33.00;31.07;98087.78;5063156;28;20214;-75
2021/09/04 08:15:10;;;;;;;13.43;7.53;;;;;;;33.69;29.06;98097.56;5066938;28;20236;-77
2021/09/04 08:17:39;;;;;;;8.90;6.27;;;;;;;30.10;34.21;98094.13;5015395;28;20230;-72
2021/09/04 08:20:08;;;;;;;8.23;5.70;;;;;;;29.47;35.58;98080.13;5026618;28;20210;-75
2021/09/04 08:22:35;;;;;;;12.83;6.20;;;;;;;29.77;35.76;98082.00;5008062;28;20237;-76
2021/09/04 08:25:03;;;;;;;7.83;5.63;;;;;;;31.16;33.18;98083.06;5033710;28;20548;-75
2021/09/04 08:27:31;;;;;;;7.93;5.20;;;;;;;33.45;28.90;98102.34;5031009;28;20245;-76
2021/09/04 08:29:58;;;;;;;8.47;5.60;;;;;;;34.16;27.55;98109.72;5031534;28;20206;-74
2021/09/04 08:32:26;;;;;;;9.20;5.40;;;;;;;33.53;28.05;98112.47;5030406;28;20663;-74
2021/09/04 08:34:54;;;;;;;8.40;5.80;;;;;;;30.63;32.66;98100.09;5032378;28;20211;-75
2021/09/04 08:37:22;;;;;;;9.50;5.53;;;;;;;33.24;28.94;98102.41;5034853;28;20190;-75
2021/09/04 08:39:50;;;;;;;9.03;5.53;;;;;;;34.31;27.59;98114.56;5024537;28;20596;-76
2021/09/04 08:42:17;;;;;;;7.47;5.27;;;;;;;33.90;28.25;98114.09;5030348;28;20283;-76
2021/09/04 08:44:45;;;;;;;9.87;5.47;;;;;;;34.58;27.15;98105.44;5034182;28;20231;-76
2021/09/04 08:47:13;;;;;;;9.83;6.10;;;;;;;33.38;28.16;98119.53;5029071;28;20216;-75
2021/09/04 08:49:40;;;;;;;8.87;5.70;;;;;;;34.35;27.62;98117.44;5031358;28;20223;-75
2021/09/04 08:52:09;;;;;;;9.17;5.70;;;;;;;34.02;27.72;98116.81;5035507;28;20630;-75
2021/09/04 08:54:37;;;;;;;9.23;6.27;;;;;;;33.92;28.31;98117.31;5033804;28;20709;-75
2021/09/04 08:57:04;;;;;;;10.07;5.73;;;;;;;33.86;28.09;98113.94;5033981;28;20208;-74
2021/09/04 08:59:32;;;;;;;8.07;5.73;;;;;;;34.66;27.33;98112.00;5028041;28;20211;-76
2021/09/04 09:01:59;;;;;;;10.67;5.53;;;;;;;35.47;26.33;98122.47;5027351;28;20239;-74
2021/09/04 09:04:28;;;;;;;10.27;6.30;;;;;;;32.25;29.94;98111.09;5028325;28;20714;-79
2021/09/04 09:06:55;;;;;;;8.80;5.70;;;;;;;34.89;26.56;98117.78;5036213;28;20211;-77
2021/09/04 09:09:25;;;;;;;8.33;4.90;;;;;;;33.48;28.16;98121.00;5035644;28;20752;-77
2021/09/04 09:11:54;;;;;;;7.37;4.73;;;;;;;32.58;29.41;98109.19;5031622;28;20215;-78
2021/09/04 09:14:22;;;;;;;9.93;5.00;;;;;;;31.62;30.72;98113.34;5031869;28;20252;-82
2021/09/04 09:16:52;;;;;;;7.17;5.00;;;;;;;32.85;29.54;98108.63;5034670;28;20213;-78
2021/09/04 09:19:26;;;;;;;6.23;4.50;;;;;;;35.81;25.34;98124.53;5031274;28;20301;-77
2021/09/04 09:21:54;;;;;;;6.27;4.73;;;;;;;35.75;25.10;98123.19;5033739;28;20402;-78
2021/09/04 09:24:24;;;;;;;8.83;4.57;;;;;;;35.95;24.67;98128.41;5033353;28;20240;-77
2021/09/04 09:26:53;;;;;;;7.63;4.60;;;;;;;36.00;24.59;98135.66;5034157;28;20205;-78
2021/09/04 09:29:23;;;;;;;6.30;4.30;;;;;;;36.68;24.00;98134.00;5029356;28;20206;-77
2021/09/04 09:31:51;;;;;;;7.38;4.80;;;;;;;36.83;23.83;98133.09;5028979;28;20299;-76
2021/09/04 09:34:18;;;;;;;7.43;4.70;;;;;;;33.43;27.25;98126.78;5030832;28;20246;-77
2021/09/04 09:36:49;;;;;;;8.68;4.15;;;;;;;36.40;24.05;98127.81;5034186;28;20679;-75
2021/09/04 09:39:17;;;;;;;7.50;4.80;;;;;;;33.76;27.12;98122.72;5032210;28;20203;-80
2021/09/04 09:41:53;;;;;;;7.50;4.60;;;;;;;32.09;29.37;98114.81;5031135;28;20217;-75
2021/09/04 09:44:21;;;;;;;7.38;4.45;;;;;;;35.99;24.96;98126.53;5031506;28;20226;-74
2021/09/04 09:46:53;;;;;;;5.97;4.07;;;;;;;35.20;26.19;98115.81;5030299;28;20217;-73
2021/09/04 09:49:27;;;;;;;9.68;5.00;;;;;;;35.39;24.67;98123.44;5031420;28;20214;-74
2021/09/04 09:51:57;;;;;;;9.35;5.05;;;;;;;35.75;24.88;98123.19;5032236;28;20209;-73
2021/09/04 09:54:30;;;;;;;5.45;4.22;;;;;;;34.49;25.64;98124.19;5031484;28;20276;-80
2021/09/04 09:57:00;;;;;;;5.05;3.67;;;;;;;36.50;23.64;98118.88;5034245;28;20244;-80
2021/09/04 09:59:34;;;;;;;5.57;3.83;;;;;;;35.44;23.83;98128.72;5021556;28;20199;-85
2021/09/04 10:02:05;;;;;;;6.85;4.55;;;;;;;34.13;25.65;98120.72;5022720;28;20192;-84
2021/09/04 10:04:34;;;;;;;6.38;4.30;;;;;;;33.93;26.55;98105.88;5023607;28;20589;-85
2021/09/04 10:07:03;;;;;;;7.80;4.30;;;;;;;32.85;27.39;98105.84;5025226;28;20325;-84
2021/09/04 10:09:31;;;;;;;6.50;3.65;;;;;;;36.77;23.22;98112.31;5038585;28;20209;-82
2021/09/04 10:12:00;;;;;;;6.78;4.05;;;;;;;35.01;24.36;98109.38;5036761;28;20681;-82
2021/09/04 10:14:28;;;;;;;5.05;3.58;;;;;;;36.79;22.27;98105.22;5039235;28;20258;-80
2021/09/04 10:16:59;;;;;;;6.38;4.15;;;;;;;36.90;22.09;98106.22;5035151;28;20460;-81
2021/09/04 10:19:29;;;;;;;5.57;4.40;;;;;;;33.05;26.82;98106.91;5030533;28;20219;-81
2021/09/04 10:22:00;;;;;;;7.13;4.72;;;;;;;32.28;27.39;98098.59;5031462;28;20659;-83
2021/09/04 10:24:45;;;;;;;5.80;3.80;;;;;;;36.14;23.37;98100.66;5032653;28;20225;-83
2021/09/04 10:27:15;;;;;;;5.03;3.72;;;;;;;37.42;21.92;98102.75;5033678;28;20209;-79
2021/09/04 10:29:43;;;;;;;4.70;3.20;;;;;;;37.12;21.67;98111.00;5032005;28;20214;-80
2021/09/04 10:32:15;;;;;;;4.35;3.50;;;;;;;34.10;23.94;98102.03;5033753;28;20202;-83
2021/09/04 10:34:44;;;;;;;4.22;3.00;;;;;;;34.55;23.24;98108.09;5029692;28;20644;-73
2021/09/04 10:37:17;;;;;;;6.18;3.40;;;;;;;34.59;22.88;98107.06;5032554;28;20195;-80
2021/09/04 10:39:53;;;;;;;6.53;3.58;;;;;;;33.46;24.14;98104.78;5028939;28;20205;-83
2021/09/04 10:42:26;;;;;;;5.10;3.38;;;;;;;35.79;22.37;98102.66;5031564;28;20237;-79
2021/09/04 10:44:58;;;;;;;5.28;3.20;;;;;;;37.15;20.88;98101.09;5031821;28;20309;-83
2021/09/04 10:47:25;;;;;;;5.22;2.97;;;;;;;33.63;23.79;98101.75;5039365;28;20182;-83
2021/09/04 10:49:56;;;;;;;5.40;3.45;;;;;;;34.01;23.26;98101.34;5035914;28;20619;-83
2021/09/04 10:52:55;;;;;;;4.57;3.08;;;;;;;34.13;23.11;98099.34;5027306;28;20234;-84
2021/09/04 10:55:24;;;;;;;6.97;3.28;;;;;;;35.62;22.14;98107.75;5028076;28;20266;-79
2021/09/04 10:57:54;;;;;;;3.55;2.90;;;;;;;36.38;21.28;98105.97;5031163;28;20206;-79
2021/09/04 11:00:25;;;;;;;4.13;3.30;;;;;;;32.53;24.50;98092.03;5035917;28;20204;-79
2021/09/04 11:03:02;;;;;;;5.20;3.10;;;;;;;32.65;24.00;98086.50;5029572;28;20222;-79
2021/09/04 11:05:41;;;;;;;5.57;3.13;;;;;;;32.59;24.29;98085.13;5032423;28;20209;-78
2021/09/04 11:08:10;;;;;;;4.18;3.10;;;;;;;35.62;21.31;98083.59;5033217;28;20219;-79
2021/09/04 11:10:39;;;;;;;4.35;3.28;;;;;;;32.58;22.36;98100.09;5020346;28;20301;-78
2021/09/04 11:13:36;;;;;;;3.85;2.40;;;;;;;33.78;22.06;98098.28;5032780;28;20229;-79
2021/09/04 11:16:35;;;;;;;4.63;3.00;;;;;;;34.41;20.90;98100.19;5037642;28;20198;-78
2021/09/04 11:19:08;;;;;;;4.35;3.05;;;;;;;35.27;19.85;98101.34;5035285;28;20199;-80
2021/09/04 11:21:52;;;;;;;4.97;2.75;;;;;;;37.37;18.23;98100.28;5036473;28;20209;-82
2021/09/04 11:24:21;;;;;;;5.28;3.13;;;;;;;37.86;17.99;98092.72;5030213;28;20737;-83
2021/09/04 11:26:55;;;;;;;3.80;2.60;;;;;;;36.13;20.10;98096.28;5034413;28;20206;-82
2021/09/04 11:32:07;;;;;;;6.53;3.92;;;;;;;35.22;22.48;98084.94;5037993;28;20206;-81
2021/09/04 11:34:45;;;;;;;4.68;3.70;;;;;;;35.74;22.44;98086.25;5033133;28;20233;-80
2021/09/04 11:37:27;;;;;;;10.07;4.40;;;;;;;35.64;22.37;98084.00;5029755;28;20680;-80